sensor_id;sensor_type;location;lat;lon;timestamp;P1;durP1;ratioP1;P2;durP2;ratioP2
43682;SDS011;29285;52.128;21.060;2024-03-02T00:04:16;34.10;;;22.10;;
43682;SDS011;29285;52.128;21.060;2024-03-02T00:09:18;34.50;;;21.30;;
43682;SDS011;29285;52.128;21.060;2024-03-02T00:14:19;33.30;;;21.20;;
43682;SDS011;29285;52.128;21.060;2024-03-02T00:19:20;31.50;;;20.00;;
43682;SDS011;29285;52.128;21.060;2024-03-02T00:24:31;29.90;;;18.80;;
43682;SDS011;29285;52.128;21.060;2024-03-02T00:29:34;30.10;;;20.80;;
43682;SDS011;29285;52.128;21.060;2024-03-02T00:34:36;31.70;;;22.10;;
43682;SDS011;29285;52.128;21.060;2024-03-02T00:39:37;30.50;;;20.10;;
43682;SDS011;29285;52.128;21.060;2024-03-02T00:44:38;29.50;;;20.70;;
43682;SDS011;29285;52.128;21.060;2024-03-02T00:49:39;28.80;;;20.60;;
43682;SDS011;29285;52.128;21.060;2024-03-02T00:54:40;30.60;;;21.80;;
43682;SDS011;29285;52.128;21.060;2024-03-02T00:59:41;29.60;;;19.60;;
43682;SDS011;29285;52.128;21.060;2024-03-02T01:04:41;26.50;;;18.20;;
43682;SDS011;29285;52.128;21.060;2024-03-02T01:09:42;30.20;;;20.70;;
43682;SDS011;29285;52.128;21.060;2024-03-02T01:14:44;28.80;;;19.50;;
43682;SDS011;29285;52.128;21.060;2024-03-02T01:19:45;31.40;;;20.70;;
43682;SDS011;29285;52.128;21.060;2024-03-02T01:24:46;28.50;;;20.20;;
43682;SDS011;29285;52.128;21.060;2024-03-02T01:29:47;34.90;;;22.70;;
43682;SDS011;29285;52.128;21.060;2024-03-02T01:34:48;29.20;;;19.70;;
43682;SDS011;29285;52.128;21.060;2024-03-02T01:39:49;33.70;;;20.60;;
43682;SDS011;29285;52.128;21.060;2024-03-02T01:44:51;29.00;;;20.40;;
43682;SDS011;29285;52.128;21.060;2024-03-02T01:49:52;30.80;;;20.80;;
43682;SDS011;29285;52.128;21.060;2024-03-02T01:54:53;29.20;;;19.20;;
43682;SDS011;29285;52.128;21.060;2024-03-02T01:59:54;27.00;;;18.80;;
43682;SDS011;29285;52.128;21.060;2024-03-02T02:04:55;24.60;;;17.60;;
43682;SDS011;29285;52.128;21.060;2024-03-02T02:09:56;30.60;;;21.00;;
43682;SDS011;29285;52.128;21.060;2024-03-02T02:14:58;29.90;;;19.50;;
43682;SDS011;29285;52.128;21.060;2024-03-02T02:19:59;28.90;;;17.60;;
43682;SDS011;29285;52.128;21.060;2024-03-02T02:25:00;27.70;;;20.00;;
43682;SDS011;29285;52.128;21.060;2024-03-02T02:30:01;32.90;;;20.70;;
43682;SDS011;29285;52.128;21.060;2024-03-02T02:35:03;30.40;;;20.10;;
43682;SDS011;29285;52.128;21.060;2024-03-02T02:40:06;27.20;;;18.00;;
43682;SDS011;29285;52.128;21.060;2024-03-02T02:45:07;29.70;;;20.60;;
43682;SDS011;29285;52.128;21.060;2024-03-02T02:50:10;35.90;;;21.60;;
43682;SDS011;29285;52.128;21.060;2024-03-02T02:55:12;29.60;;;18.50;;
43682;SDS011;29285;52.128;21.060;2024-03-02T03:00:16;31.30;;;19.60;;
43682;SDS011;29285;52.128;21.060;2024-03-02T03:05:19;30.20;;;20.00;;
43682;SDS011;29285;52.128;21.060;2024-03-02T03:10:20;27.60;;;18.50;;
43682;SDS011;29285;52.128;21.060;2024-03-02T03:15:24;29.40;;;19.40;;
43682;SDS011;29285;52.128;21.060;2024-03-02T03:20:25;25.70;;;18.60;;
43682;SDS011;29285;52.128;21.060;2024-03-02T03:25:26;26.90;;;17.10;;
43682;SDS011;29285;52.128;21.060;2024-03-02T03:30:27;29.80;;;20.70;;
43682;SDS011;29285;52.128;21.060;2024-03-02T03:35:28;29.10;;;20.20;;
43682;SDS011;29285;52.128;21.060;2024-03-02T03:40:29;27.00;;;18.60;;
43682;SDS011;29285;52.128;21.060;2024-03-02T03:45:30;27.90;;;19.40;;
43682;SDS011;29285;52.128;21.060;2024-03-02T03:50:31;25.70;;;18.60;;
43682;SDS011;29285;52.128;21.060;2024-03-02T03:55:32;26.70;;;19.40;;
43682;SDS011;29285;52.128;21.060;2024-03-02T04:00:33;28.80;;;18.00;;
43682;SDS011;29285;52.128;21.060;2024-03-02T04:05:34;27.40;;;18.50;;
43682;SDS011;29285;52.128;21.060;2024-03-02T04:10:35;25.50;;;17.70;;
43682;SDS011;29285;52.128;21.060;2024-03-02T04:15:37;27.10;;;19.10;;
43682;SDS011;29285;52.128;21.060;2024-03-02T04:20:38;30.40;;;20.50;;
43682;SDS011;29285;52.128;21.060;2024-03-02T04:25:39;26.50;;;19.20;;
43682;SDS011;29285;52.128;21.060;2024-03-02T04:30:40;30.30;;;19.00;;
43682;SDS011;29285;52.128;21.060;2024-03-02T04:35:41;28.60;;;19.10;;
43682;SDS011;29285;52.128;21.060;2024-03-02T04:40:42;27.90;;;18.60;;
43682;SDS011;29285;52.128;21.060;2024-03-02T04:45:43;31.60;;;21.50;;
43682;SDS011;29285;52.128;21.060;2024-03-02T04:50:47;30.60;;;19.60;;
43682;SDS011;29285;52.128;21.060;2024-03-02T04:55:48;30.70;;;19.50;;
43682;SDS011;29285;52.128;21.060;2024-03-02T05:01:18;29.10;;;19.30;;
43682;SDS011;29285;52.128;21.060;2024-03-02T05:06:19;31.40;;;21.00;;
43682;SDS011;29285;52.128;21.060;2024-03-02T05:11:20;31.90;;;19.50;;
43682;SDS011;29285;52.128;21.060;2024-03-02T05:16:39;27.70;;;19.10;;
43682;SDS011;29285;52.128;21.060;2024-03-02T05:21:42;26.90;;;17.80;;
43682;SDS011;29285;52.128;21.060;2024-03-02T05:26:44;25.20;;;17.80;;
43682;SDS011;29285;52.128;21.060;2024-03-02T05:31:45;28.40;;;18.50;;
43682;SDS011;29285;52.128;21.060;2024-03-02T05:36:46;27.00;;;17.10;;
43682;SDS011;29285;52.128;21.060;2024-03-02T05:41:47;22.20;;;16.00;;
43682;SDS011;29285;52.128;21.060;2024-03-02T05:46:48;26.40;;;16.60;;
43682;SDS011;29285;52.128;21.060;2024-03-02T05:51:49;25.40;;;16.30;;
43682;SDS011;29285;52.128;21.060;2024-03-02T05:56:50;24.70;;;17.90;;
43682;SDS011;29285;52.128;21.060;2024-03-02T06:01:51;24.60;;;15.30;;
43682;SDS011;29285;52.128;21.060;2024-03-02T06:06:52;24.20;;;15.50;;
43682;SDS011;29285;52.128;21.060;2024-03-02T06:11:55;22.50;;;16.00;;
43682;SDS011;29285;52.128;21.060;2024-03-02T06:16:56;26.50;;;16.70;;
43682;SDS011;29285;52.128;21.060;2024-03-02T06:21:57;25.50;;;16.90;;
43682;SDS011;29285;52.128;21.060;2024-03-02T06:26:58;27.60;;;17.80;;
43682;SDS011;29285;52.128;21.060;2024-03-02T06:31:59;27.10;;;18.30;;
43682;SDS011;29285;52.128;21.060;2024-03-02T06:37:00;27.60;;;18.70;;
43682;SDS011;29285;52.128;21.060;2024-03-02T06:42:01;23.90;;;16.10;;
43682;SDS011;29285;52.128;21.060;2024-03-02T06:47:02;25.10;;;16.50;;
43682;SDS011;29285;52.128;21.060;2024-03-02T06:52:04;23.50;;;15.20;;
43682;SDS011;29285;52.128;21.060;2024-03-02T06:57:06;23.10;;;16.60;;
43682;SDS011;29285;52.128;21.060;2024-03-02T07:02:06;27.00;;;15.70;;
43682;SDS011;29285;52.128;21.060;2024-03-02T07:07:09;20.30;;;14.60;;
43682;SDS011;29285;52.128;21.060;2024-03-02T07:12:10;23.70;;;14.40;;
43682;SDS011;29285;52.128;21.060;2024-03-02T07:17:11;23.40;;;16.40;;
43682;SDS011;29285;52.128;21.060;2024-03-02T07:22:12;24.40;;;15.10;;
43682;SDS011;29285;52.128;21.060;2024-03-02T07:27:14;18.70;;;13.10;;
43682;SDS011;29285;52.128;21.060;2024-03-02T07:32:15;25.10;;;14.50;;
43682;SDS011;29285;52.128;21.060;2024-03-02T07:37:16;27.00;;;15.80;;
43682;SDS011;29285;52.128;21.060;2024-03-02T07:42:18;21.60;;;13.20;;
43682;SDS011;29285;52.128;21.060;2024-03-02T07:47:19;24.50;;;14.60;;
43682;SDS011;29285;52.128;21.060;2024-03-02T07:52:21;23.80;;;15.00;;
43682;SDS011;29285;52.128;21.060;2024-03-02T07:57:22;22.70;;;14.00;;
43682;SDS011;29285;52.128;21.060;2024-03-02T08:02:23;22.40;;;13.50;;
43682;SDS011;29285;52.128;21.060;2024-03-02T08:07:24;23.40;;;14.50;;
43682;SDS011;29285;52.128;21.060;2024-03-02T08:12:25;22.40;;;13.80;;
43682;SDS011;29285;52.128;21.060;2024-03-02T08:17:26;24.20;;;13.80;;
43682;SDS011;29285;52.128;21.060;2024-03-02T08:22:27;22.70;;;14.30;;
43682;SDS011;29285;52.128;21.060;2024-03-02T08:27:28;23.00;;;14.60;;
43682;SDS011;29285;52.128;21.060;2024-03-02T08:32:29;24.00;;;16.00;;
43682;SDS011;29285;52.128;21.060;2024-03-02T08:37:30;24.40;;;15.00;;
43682;SDS011;29285;52.128;21.060;2024-03-02T08:42:31;25.60;;;15.30;;
43682;SDS011;29285;52.128;21.060;2024-03-02T08:47:32;24.50;;;15.30;;
43682;SDS011;29285;52.128;21.060;2024-03-02T08:52:34;25.00;;;13.80;;
43682;SDS011;29285;52.128;21.060;2024-03-02T08:57:35;23.90;;;14.50;;
43682;SDS011;29285;52.128;21.060;2024-03-02T09:02:36;22.10;;;13.40;;
43682;SDS011;29285;52.128;21.060;2024-03-02T09:07:37;23.60;;;14.50;;
43682;SDS011;29285;52.128;21.060;2024-03-02T09:12:39;22.60;;;13.10;;
43682;SDS011;29285;52.128;21.060;2024-03-02T09:17:40;24.10;;;14.30;;
43682;SDS011;29285;52.128;21.060;2024-03-02T09:22:41;24.10;;;15.90;;
43682;SDS011;29285;52.128;21.060;2024-03-02T09:27:42;23.70;;;12.60;;
43682;SDS011;29285;52.128;21.060;2024-03-02T09:32:43;22.50;;;15.00;;
43682;SDS011;29285;52.128;21.060;2024-03-02T09:37:44;21.10;;;14.20;;
43682;SDS011;29285;52.128;21.060;2024-03-02T09:42:45;23.50;;;13.60;;
43682;SDS011;29285;52.128;21.060;2024-03-02T09:47:51;26.30;;;16.10;;
43682;SDS011;29285;52.128;21.060;2024-03-02T09:52:52;23.50;;;13.00;;
43682;SDS011;29285;52.128;21.060;2024-03-02T09:57:54;21.50;;;14.20;;
43682;SDS011;29285;52.128;21.060;2024-03-02T10:02:56;23.80;;;13.10;;
43682;SDS011;29285;52.128;21.060;2024-03-02T10:07:59;22.10;;;14.50;;
43682;SDS011;29285;52.128;21.060;2024-03-02T10:13:06;22.30;;;13.30;;
43682;SDS011;29285;52.128;21.060;2024-03-02T10:18:11;22.40;;;13.70;;
43682;SDS011;29285;52.128;21.060;2024-03-02T10:23:14;22.50;;;14.10;;
43682;SDS011;29285;52.128;21.060;2024-03-02T10:28:18;26.90;;;15.20;;
43682;SDS011;29285;52.128;21.060;2024-03-02T10:33:19;26.10;;;15.30;;
43682;SDS011;29285;52.128;21.060;2024-03-02T10:38:20;22.90;;;14.40;;
43682;SDS011;29285;52.128;21.060;2024-03-02T10:43:21;20.70;;;12.40;;
43682;SDS011;29285;52.128;21.060;2024-03-02T10:48:22;23.30;;;14.50;;
43682;SDS011;29285;52.128;21.060;2024-03-02T10:53:26;24.40;;;15.80;;
43682;SDS011;29285;52.128;21.060;2024-03-02T10:58:30;26.30;;;15.90;;
43682;SDS011;29285;52.128;21.060;2024-03-02T11:03:35;26.00;;;14.40;;
43682;SDS011;29285;52.128;21.060;2024-03-02T11:08:40;22.20;;;14.10;;
43682;SDS011;29285;52.128;21.060;2024-03-02T11:13:46;23.70;;;15.30;;
43682;SDS011;29285;52.128;21.060;2024-03-02T11:18:50;24.90;;;16.50;;
43682;SDS011;29285;52.128;21.060;2024-03-02T11:23:51;27.80;;;17.20;;
43682;SDS011;29285;52.128;21.060;2024-03-02T11:28:52;31.40;;;16.80;;
43682;SDS011;29285;52.128;21.060;2024-03-02T11:33:54;26.80;;;19.00;;
43682;SDS011;29285;52.128;21.060;2024-03-02T11:38:55;33.10;;;20.40;;
43682;SDS011;29285;52.128;21.060;2024-03-02T11:43:56;31.00;;;20.20;;
43682;SDS011;29285;52.128;21.060;2024-03-02T11:48:57;30.20;;;18.50;;
43682;SDS011;29285;52.128;21.060;2024-03-02T11:54:00;27.50;;;19.40;;
43682;SDS011;29285;52.128;21.060;2024-03-02T11:59:03;31.80;;;20.30;;
43682;SDS011;29285;52.128;21.060;2024-03-02T12:04:05;30.80;;;19.30;;
43682;SDS011;29285;52.128;21.060;2024-03-02T12:09:09;33.80;;;20.70;;
43682;SDS011;29285;52.128;21.060;2024-03-02T12:14:12;29.90;;;22.00;;
43682;SDS011;29285;52.128;21.060;2024-03-02T12:19:13;29.00;;;20.50;;
43682;SDS011;29285;52.128;21.060;2024-03-02T12:24:16;32.00;;;22.90;;
43682;SDS011;29285;52.128;21.060;2024-03-02T12:29:20;35.70;;;20.80;;
43682;SDS011;29285;52.128;21.060;2024-03-02T12:34:22;34.40;;;22.10;;
43682;SDS011;29285;52.128;21.060;2024-03-02T12:39:23;33.90;;;23.10;;
43682;SDS011;29285;52.128;21.060;2024-03-02T12:44:25;28.40;;;19.90;;
43682;SDS011;29285;52.128;21.060;2024-03-02T12:49:26;30.40;;;20.00;;
43682;SDS011;29285;52.128;21.060;2024-03-02T12:54:29;28.30;;;20.10;;
43682;SDS011;29285;52.128;21.060;2024-03-02T12:59:30;31.40;;;21.00;;
43682;SDS011;29285;52.128;21.060;2024-03-02T13:04:32;29.50;;;19.60;;
43682;SDS011;29285;52.128;21.060;2024-03-02T13:09:33;30.20;;;21.80;;
43682;SDS011;29285;52.128;21.060;2024-03-02T13:14:35;30.20;;;20.80;;
43682;SDS011;29285;52.128;21.060;2024-03-02T13:19:36;27.60;;;20.20;;
43682;SDS011;29285;52.128;21.060;2024-03-02T13:24:37;29.80;;;18.20;;
43682;SDS011;29285;52.128;21.060;2024-03-02T13:29:38;43.40;;;21.90;;
43682;SDS011;29285;52.128;21.060;2024-03-02T13:34:39;34.60;;;22.00;;
43682;SDS011;29285;52.128;21.060;2024-03-02T13:39:40;31.10;;;21.70;;
43682;SDS011;29285;52.128;21.060;2024-03-02T13:44:43;33.70;;;22.20;;
43682;SDS011;29285;52.128;21.060;2024-03-02T13:49:47;36.30;;;20.50;;
43682;SDS011;29285;52.128;21.060;2024-03-02T13:54:49;26.90;;;18.00;;
43682;SDS011;29285;52.128;21.060;2024-03-02T13:59:52;32.00;;;20.80;;
43682;SDS011;29285;52.128;21.060;2024-03-02T14:04:53;31.50;;;21.40;;
43682;SDS011;29285;52.128;21.060;2024-03-02T14:09:55;31.10;;;21.50;;
43682;SDS011;29285;52.128;21.060;2024-03-02T14:14:56;35.30;;;21.90;;
43682;SDS011;29285;52.128;21.060;2024-03-02T14:20:03;35.80;;;21.70;;
43682;SDS011;29285;52.128;21.060;2024-03-02T14:25:05;29.30;;;21.50;;
43682;SDS011;29285;52.128;21.060;2024-03-02T14:30:07;32.80;;;20.40;;
43682;SDS011;29285;52.128;21.060;2024-03-02T14:35:08;31.90;;;21.10;;
43682;SDS011;29285;52.128;21.060;2024-03-02T14:40:10;29.40;;;20.50;;
43682;SDS011;29285;52.128;21.060;2024-03-02T14:45:13;33.30;;;23.00;;
43682;SDS011;29285;52.128;21.060;2024-03-02T14:50:14;32.60;;;22.00;;
43682;SDS011;29285;52.128;21.060;2024-03-02T14:55:17;37.30;;;22.70;;
43682;SDS011;29285;52.128;21.060;2024-03-02T15:00:18;31.50;;;21.70;;
43682;SDS011;29285;52.128;21.060;2024-03-02T15:05:19;31.30;;;22.90;;
43682;SDS011;29285;52.128;21.060;2024-03-02T15:10:20;40.20;;;25.50;;
43682;SDS011;29285;52.128;21.060;2024-03-02T15:15:21;33.70;;;22.90;;
43682;SDS011;29285;52.128;21.060;2024-03-02T15:20:22;35.80;;;23.50;;
43682;SDS011;29285;52.128;21.060;2024-03-02T15:25:23;33.60;;;23.50;;
43682;SDS011;29285;52.128;21.060;2024-03-02T15:30:24;33.90;;;22.90;;
43682;SDS011;29285;52.128;21.060;2024-03-02T15:35:25;34.90;;;23.80;;
43682;SDS011;29285;52.128;21.060;2024-03-02T15:40:27;32.70;;;22.60;;
43682;SDS011;29285;52.128;21.060;2024-03-02T15:45:29;32.60;;;22.30;;
43682;SDS011;29285;52.128;21.060;2024-03-02T15:50:34;34.20;;;23.10;;
43682;SDS011;29285;52.128;21.060;2024-03-02T15:55:37;35.80;;;23.50;;
43682;SDS011;29285;52.128;21.060;2024-03-02T16:00:38;42.70;;;24.10;;
43682;SDS011;29285;52.128;21.060;2024-03-02T16:05:40;31.00;;;22.60;;
43682;SDS011;29285;52.128;21.060;2024-03-02T16:10:41;34.60;;;24.10;;
43682;SDS011;29285;52.128;21.060;2024-03-02T16:15:42;42.60;;;26.50;;
43682;SDS011;29285;52.128;21.060;2024-03-02T16:20:43;30.20;;;21.50;;
43682;SDS011;29285;52.128;21.060;2024-03-02T16:25:45;31.80;;;21.40;;
43682;SDS011;29285;52.128;21.060;2024-03-02T16:30:46;37.00;;;24.10;;
43682;SDS011;29285;52.128;21.060;2024-03-02T16:35:47;37.70;;;23.60;;
43682;SDS011;29285;52.128;21.060;2024-03-02T16:40:50;38.30;;;24.00;;
43682;SDS011;29285;52.128;21.060;2024-03-02T16:45:51;30.30;;;21.40;;
43682;SDS011;29285;52.128;21.060;2024-03-02T16:50:53;30.20;;;20.80;;
43682;SDS011;29285;52.128;21.060;2024-03-02T16:55:58;28.90;;;18.70;;
43682;SDS011;29285;52.128;21.060;2024-03-02T17:00:59;28.90;;;19.70;;
43682;SDS011;29285;52.128;21.060;2024-03-02T17:06:01;26.90;;;19.40;;
43682;SDS011;29285;52.128;21.060;2024-03-02T17:11:02;33.10;;;20.40;;
43682;SDS011;29285;52.128;21.060;2024-03-02T17:16:04;26.60;;;18.00;;
43682;SDS011;29285;52.128;21.060;2024-03-02T17:21:05;29.30;;;18.10;;
43682;SDS011;29285;52.128;21.060;2024-03-02T17:26:06;33.00;;;20.70;;
43682;SDS011;29285;52.128;21.060;2024-03-02T17:31:08;33.00;;;20.20;;
43682;SDS011;29285;52.128;21.060;2024-03-02T17:36:09;28.20;;;18.20;;
43682;SDS011;29285;52.128;21.060;2024-03-02T17:41:17;31.90;;;20.10;;
43682;SDS011;29285;52.128;21.060;2024-03-02T17:46:18;31.80;;;19.20;;
43682;SDS011;29285;52.128;21.060;2024-03-02T17:51:19;30.80;;;17.90;;
43682;SDS011;29285;52.128;21.060;2024-03-02T17:56:21;29.30;;;18.60;;
43682;SDS011;29285;52.128;21.060;2024-03-02T18:01:23;28.90;;;18.00;;
43682;SDS011;29285;52.128;21.060;2024-03-02T18:06:24;29.00;;;19.10;;
43682;SDS011;29285;52.128;21.060;2024-03-02T18:11:26;26.60;;;18.40;;
43682;SDS011;29285;52.128;21.060;2024-03-02T18:16:27;37.70;;;19.70;;
43682;SDS011;29285;52.128;21.060;2024-03-02T18:21:28;29.50;;;19.80;;
43682;SDS011;29285;52.128;21.060;2024-03-02T18:26:30;30.30;;;18.60;;
43682;SDS011;29285;52.128;21.060;2024-03-02T18:31:33;29.30;;;19.00;;
43682;SDS011;29285;52.128;21.060;2024-03-02T18:36:34;29.30;;;20.00;;
43682;SDS011;29285;52.128;21.060;2024-03-02T18:41:35;27.80;;;17.80;;
43682;SDS011;29285;52.128;21.060;2024-03-02T18:46:36;28.30;;;17.40;;
43682;SDS011;29285;52.128;21.060;2024-03-02T18:51:37;32.70;;;19.30;;
43682;SDS011;29285;52.128;21.060;2024-03-02T18:56:39;30.30;;;19.30;;
43682;SDS011;29285;52.128;21.060;2024-03-02T19:01:40;30.30;;;17.80;;
43682;SDS011;29285;52.128;21.060;2024-03-02T19:06:41;29.00;;;19.30;;
43682;SDS011;29285;52.128;21.060;2024-03-02T19:11:42;29.90;;;19.70;;
43682;SDS011;29285;52.128;21.060;2024-03-02T19:16:44;31.00;;;19.20;;
43682;SDS011;29285;52.128;21.060;2024-03-02T19:21:45;29.30;;;19.60;;
43682;SDS011;29285;52.128;21.060;2024-03-02T19:26:46;29.00;;;17.30;;
43682;SDS011;29285;52.128;21.060;2024-03-02T19:31:47;27.20;;;18.00;;
43682;SDS011;29285;52.128;21.060;2024-03-02T19:36:48;31.50;;;18.30;;
43682;SDS011;29285;52.128;21.060;2024-03-02T19:41:49;36.20;;;19.70;;
43682;SDS011;29285;52.128;21.060;2024-03-02T19:46:50;28.80;;;18.50;;
43682;SDS011;29285;52.128;21.060;2024-03-02T19:51:51;30.30;;;18.40;;
43682;SDS011;29285;52.128;21.060;2024-03-02T19:56:53;31.40;;;19.30;;
43682;SDS011;29285;52.128;21.060;2024-03-02T20:01:56;31.10;;;18.90;;
43682;SDS011;29285;52.128;21.060;2024-03-02T20:06:57;26.00;;;18.30;;
43682;SDS011;29285;52.128;21.060;2024-03-02T20:11:58;27.60;;;19.40;;
43682;SDS011;29285;52.128;21.060;2024-03-02T20:17:00;27.70;;;19.30;;
43682;SDS011;29285;52.128;21.060;2024-03-02T20:22:01;27.00;;;18.50;;
43682;SDS011;29285;52.128;21.060;2024-03-02T20:27:02;29.30;;;19.50;;
43682;SDS011;29285;52.128;21.060;2024-03-02T20:32:05;25.90;;;17.50;;
43682;SDS011;29285;52.128;21.060;2024-03-02T20:37:07;26.80;;;16.20;;
43682;SDS011;29285;52.128;21.060;2024-03-02T20:42:08;27.90;;;17.30;;
43682;SDS011;29285;52.128;21.060;2024-03-02T20:47:09;27.10;;;17.40;;
43682;SDS011;29285;52.128;21.060;2024-03-02T20:52:11;27.60;;;17.70;;
43682;SDS011;29285;52.128;21.060;2024-03-02T20:57:12;26.10;;;17.40;;
43682;SDS011;29285;52.128;21.060;2024-03-02T21:02:13;23.60;;;15.50;;
43682;SDS011;29285;52.128;21.060;2024-03-02T21:07:14;22.80;;;16.20;;
43682;SDS011;29285;52.128;21.060;2024-03-02T21:12:15;23.10;;;15.50;;
43682;SDS011;29285;52.128;21.060;2024-03-02T21:17:16;26.00;;;15.60;;
43682;SDS011;29285;52.128;21.060;2024-03-02T21:22:17;29.60;;;17.70;;
43682;SDS011;29285;52.128;21.060;2024-03-02T21:27:18;27.70;;;16.00;;
43682;SDS011;29285;52.128;21.060;2024-03-02T21:32:19;25.80;;;15.80;;
43682;SDS011;29285;52.128;21.060;2024-03-02T21:37:20;26.10;;;17.70;;
43682;SDS011;29285;52.128;21.060;2024-03-02T21:42:21;22.90;;;15.60;;
43682;SDS011;29285;52.128;21.060;2024-03-02T21:47:23;27.50;;;16.80;;
43682;SDS011;29285;52.128;21.060;2024-03-02T21:52:25;26.40;;;17.30;;
43682;SDS011;29285;52.128;21.060;2024-03-02T21:57:26;22.10;;;15.00;;
43682;SDS011;29285;52.128;21.060;2024-03-02T22:02:27;24.20;;;16.40;;
43682;SDS011;29285;52.128;21.060;2024-03-02T22:07:28;27.80;;;18.30;;
43682;SDS011;29285;52.128;21.060;2024-03-02T22:12:29;33.10;;;19.70;;
43682;SDS011;29285;52.128;21.060;2024-03-02T22:17:29;22.70;;;16.30;;
43682;SDS011;29285;52.128;21.060;2024-03-02T22:22:31;29.50;;;18.30;;
43682;SDS011;29285;52.128;21.060;2024-03-02T22:27:32;24.50;;;17.40;;
43682;SDS011;29285;52.128;21.060;2024-03-02T22:32:35;27.40;;;18.70;;
43682;SDS011;29285;52.128;21.060;2024-03-02T22:37:37;24.00;;;17.40;;
43682;SDS011;29285;52.128;21.060;2024-03-02T22:42:38;36.40;;;18.60;;
43682;SDS011;29285;52.128;21.060;2024-03-02T22:47:40;26.30;;;16.70;;
43682;SDS011;29285;52.128;21.060;2024-03-02T22:52:41;25.60;;;16.90;;
43682;SDS011;29285;52.128;21.060;2024-03-02T22:57:42;27.50;;;17.60;;
43682;SDS011;29285;52.128;21.060;2024-03-02T23:02:43;31.80;;;17.10;;
43682;SDS011;29285;52.128;21.060;2024-03-02T23:07:44;27.00;;;17.80;;
43682;SDS011;29285;52.128;21.060;2024-03-02T23:12:45;25.70;;;16.80;;
43682;SDS011;29285;52.128;21.060;2024-03-02T23:17:47;28.50;;;17.50;;
43682;SDS011;29285;52.128;21.060;2024-03-02T23:22:48;26.90;;;17.00;;
43682;SDS011;29285;52.128;21.060;2024-03-02T23:27:49;25.70;;;16.70;;
43682;SDS011;29285;52.128;21.060;2024-03-02T23:32:50;31.20;;;16.80;;
43682;SDS011;29285;52.128;21.060;2024-03-02T23:37:51;24.10;;;15.00;;
43682;SDS011;29285;52.128;21.060;2024-03-02T23:42:53;24.90;;;15.40;;
43682;SDS011;29285;52.128;21.060;2024-03-02T23:47:54;26.50;;;15.00;;
43682;SDS011;29285;52.128;21.060;2024-03-02T23:52:55;22.00;;;14.70;;
43682;SDS011;29285;52.128;21.060;2024-03-02T23:57:57;25.50;;;17.00;;
